Terminal Aerodrome Forecast
Issued by NWS

Home | Current Version | Previous Version | Text Only | Print | Product List | Glossary On
Versions: 1 2 3 4 5 6 7 8 9 10 11 12 13 14 15 16 17 18 19 20
000
FTUS45 KBOU 190215 AAA
TAFBJC
TAF AMD
KBJC 190215Z 1902/1924 28012KT P6SM SCT080 BKN130 BKN220
     FM190300 27006KT P6SM SCT120 BKN200
     FM190700 31007KT P6SM SCT100 OVC200
     FM191500 04008KT P6SM SCT080 OVC200
     FM191800 09010KT P6SM VCSH SCT060 OVC140
     FM192200 10010KT P6SM VCSH SCT040 OVC100=

USA.gov is the U.S. government's official web portal to all federal, state and local government web resources and services.